Faro, Portugal

7:37 PM WEST on July 28, 2014 (GMT +0100)
Faro (LPFR) Elev 26 ft | 37.01 °N, 7.97 °W | Change Station

Current weather conditions updated 37 minutes ago

Clear
Clear
72 °F
Feels Like 72 °F
N
20
Wind Variable Wind from West

Tomorrow is forecast to be nearly the same temperature as today.

Today
High -- | Low -- °F
--% Chance of Precip.
Yesterday
High -- | Low -- °F
Precip. -- in
6:33 AM 8:42 PM
Waxing Crescent, 3% visible
Pressure 29.95 in
Visibility -9999.0 miles
Clouds
Dew Point 63 °F
Humidity 73%
Rainfall 0.00 in
Snow Depth Not available.
UV Not available.
Pollen Not available.
Air Quality Not available.
Flu Activity Not available.
METAR LPFR 281800Z 26017KT CAVOK 22/17 Q1014

More Conditions Fewer Conditions

Pressure 29.95 in
Visibility -9999.0 miles
Clouds
Dew Point 63 °F
Humidity 73%
Rainfall 0.00 in
Snow Depth Not available.
UV Not available.
Pollen Not available.
Air Quality Not available.
Flu Activity Not available.
METAR LPFR 281800Z 26017KT CAVOK 22/17 Q1014

More Conditions Fewer Conditions

10-Day Weather Forecast

Almanac

Astronomy

Jul. 28, 2014 Rise Set
Actual Time 6:33 AM WEST 8:42 PM WEST
Civil Twilight 6:04 AM WEST 9:11 PM WEST
Nautical Twilight 5:28 AM WEST 9:47 PM WEST
Astronomical Twilight 4:50 AM WEST 10:25 PM WEST
Moon 7:59 AM WEST 9:21 PM WEST
Length of Visible Light 15h 07m
Length of Day
14h 09m
Tomorrow will be 1m 39s shorter.
Waxing Crescent, 3% of the Moon is Illuminated
Today
Waxing Crescent
Aug 3
First Quarter
Aug 10
Full
Aug 17
Last Quarter
Aug 25
New

Today's Extremes

Country Highs Country Lows

Community

WunderPhotos

Upload Photos

1,738,432 photos uploaded!

Nearby

Snow Depth

Not available.

Earthquake Activity

City Distance Mag. Time & Date
No recent earthquake activity has been reported nearby.
Minimum magnitude displayed is 2.5.

Coastal Water Temperatures

Place Temperature
No Stations Reporting

Nearby Weather Stations

Station Location Temp. Heat Index Dew Point Humidity Wind Precip. Elev Updated Type
Algarve - Almancil, Almancil 69.5 °F - 61 °F 74% NW  at  0.0 mph 0.00 in / hr 144 ft 7:37 PM WEST Rapid Fire
Albufeira - Algarve, Albufeira 72.2 °F 75 °F 61 °F 68% WSW  at  10.6 mph 0.00 in / hr 141 ft 7:37 PM WEST Rapid Fire
Quinta do Barranco, Algoz 78.0 °F 79 °F 60 °F 54% West  at  6.4 mph 0.00 in / hr 171 ft 7:36 PM WEST Rapid Fire

Show More Stations Show Fewer Stations